createdAt,value
2018-05-13T00:07:00.228Z,0.00
2018-05-13T00:21:46.921Z,0.00
2018-05-13T00:22:27.248Z,0.00
2018-05-13T00:35:37.089Z,0.00
2018-05-13T00:36:19.111Z,0.00
2018-05-13T00:37:19.220Z,0.00
2018-05-13T00:38:19.932Z,0.00
2018-05-13T00:39:19.333Z,0.00
2018-05-13T00:40:19.082Z,0.00
2018-05-13T00:41:19.069Z,0.00
2018-05-13T00:42:19.063Z,0.00
2018-05-13T00:43:19.042Z,0.00
2018-05-13T00:44:19.039Z,0.00
2018-05-13T00:45:19.113Z,0.00
2018-05-13T00:46:19.031Z,0.00
2018-05-13T00:51:38.453Z,0.00
2018-05-13T00:52:21.601Z,0.00
2018-05-13T00:53:22.363Z,0.00
2018-05-13T00:54:21.588Z,0.00
2018-05-13T00:55:21.555Z,0.00
2018-05-13T00:56:22.358Z,0.00
2018-05-13T00:57:21.716Z,0.00
2018-05-13T01:00:40.105Z,0.00
2018-05-13T01:01:40.680Z,0.00
2018-05-13T01:07:44.251Z,0.00
2018-05-13T01:08:13.062Z,0.00
2018-05-13T01:08:44.690Z,0.00
2018-05-13T01:09:44.684Z,0.00
2018-05-13T01:10:45.085Z,0.00
2018-05-13T01:11:44.620Z,0.00
2018-05-13T01:12:44.586Z,0.00
2018-05-13T01:13:44.592Z,0.00
2018-05-13T01:14:44.942Z,0.00
2018-05-13T01:15:44.571Z,0.00
2018-05-13T01:26:06.801Z,0.00
2018-05-13T01:26:49.841Z,0.00
2018-05-13T01:40:29.046Z,0.00
2018-05-13T01:40:46.151Z,0.00
2018-05-13T02:37:47.020Z,0.00
2018-05-13T02:38:19.289Z,0.00
2018-05-13T02:39:19.400Z,0.00
2018-05-13T02:40:19.289Z,0.00
2018-05-13T02:41:19.275Z,0.00
2018-05-13T02:42:19.504Z,0.00
2018-05-13T02:57:25.689Z,0.00
2018-05-13T02:57:58.051Z,0.00
2018-05-13T02:58:58.918Z,0.00
2018-05-13T02:59:58.034Z,0.00
2018-05-13T03:00:58.897Z,0.00
2018-05-13T03:01:59.244Z,0.00
2018-05-13T03:02:58.931Z,0.00
2018-05-13T03:03:58.262Z,0.00
2018-05-13T03:04:57.994Z,0.00
2018-05-13T03:05:58.912Z,0.00
2018-05-13T03:06:58.238Z,0.00
2018-05-13T03:07:59.534Z,0.00
2018-05-13T03:34:27.913Z,0.00
2018-05-13T03:34:42.326Z,0.00
2018-05-13T03:56:44.807Z,5.63
2018-05-13T03:57:44.667Z,5.63
2018-05-13T03:58:44.636Z,5.63
2018-05-13T03:59:44.684Z,5.63
2018-05-13T04:00:44.635Z,5.63
2018-05-13T04:01:44.618Z,5.63
2018-05-13T04:15:02.318Z,11.25
2018-05-13T04:16:02.307Z,11.25
2018-05-13T04:24:40.462Z,11.25
2018-05-13T04:25:03.443Z,11.25
2018-05-13T04:26:03.572Z,11.25
2018-05-13T04:27:03.374Z,11.25
2018-05-13T04:33:38.064Z,16.88
2018-05-13T04:34:38.015Z,16.88
2018-05-13T04:35:37.948Z,16.88
2018-05-13T04:36:37.932Z,16.88
2018-05-13T04:37:37.931Z,16.88
2018-05-13T04:38:37.906Z,16.88
2018-05-13T04:39:37.946Z,16.88
2018-05-13T04:40:37.903Z,16.88
2018-05-13T04:41:37.956Z,16.88
2018-05-13T04:42:37.878Z,16.88
2018-05-13T04:43:37.879Z,16.88
2018-05-13T04:44:37.855Z,16.88
2018-05-13T04:45:37.861Z,16.88
2018-05-13T04:46:37.894Z,22.50
2018-05-13T04:47:37.848Z,22.50
2018-05-13T04:48:37.837Z,22.50
2018-05-13T04:49:37.825Z,22.50
2018-05-13T04:50:37.810Z,22.50
2018-05-13T04:51:37.806Z,22.50
2018-05-13T04:52:38.237Z,22.50
2018-05-13T04:53:37.787Z,22.50
2018-05-13T04:54:37.776Z,22.50
2018-05-13T04:55:37.796Z,22.50
2018-05-13T04:56:37.753Z,22.50
2018-05-13T04:57:37.749Z,22.50
2018-05-13T04:58:37.819Z,22.50
2018-05-13T04:59:37.742Z,28.13
2018-05-13T05:00:37.717Z,28.13
2018-05-13T05:01:37.707Z,28.13
2018-05-13T05:02:37.718Z,28.13
2018-05-13T05:03:37.695Z,28.13
2018-05-13T05:04:37.724Z,28.13
2018-05-13T05:05:37.684Z,28.13
2018-05-13T05:06:37.674Z,28.13
2018-05-13T05:07:37.684Z,28.13
2018-05-13T05:08:37.674Z,28.13
2018-05-13T05:09:37.645Z,28.13
2018-05-13T05:10:37.642Z,28.13
2018-05-13T05:11:37.644Z,28.13
2018-05-13T05:12:37.647Z,28.13
2018-05-13T05:13:37.647Z,28.13
2018-05-13T05:14:37.616Z,28.13
2018-05-13T05:15:37.610Z,28.13
2018-05-13T05:16:37.614Z,28.13
2018-05-13T05:17:37.624Z,28.13
2018-05-13T05:18:37.588Z,28.13
2018-05-13T05:19:37.575Z,28.13
2018-05-13T05:20:37.569Z,28.13
2018-05-13T05:21:37.564Z,28.13
2018-05-13T05:22:37.607Z,28.13
2018-05-13T05:23:37.546Z,28.13
2018-05-13T05:24:37.537Z,28.13
2018-05-13T05:25:37.520Z,28.13
2018-05-13T05:26:37.527Z,28.13
2018-05-13T05:27:37.501Z,28.13
2018-05-13T05:28:37.632Z,28.13
2018-05-13T05:29:37.495Z,28.13
2018-05-13T05:30:37.494Z,28.13
2018-05-13T05:31:37.475Z,28.13
2018-05-13T05:32:37.462Z,28.13
2018-05-13T05:33:37.464Z,28.13
2018-05-13T05:34:37.459Z,28.13
2018-05-13T05:35:38.226Z,28.13
2018-05-13T05:36:37.446Z,28.13
2018-05-13T05:37:37.434Z,28.13
2018-05-13T05:38:37.414Z,28.13
2018-05-13T05:39:37.436Z,28.13
2018-05-13T05:40:37.481Z,33.75
2018-05-13T05:41:37.400Z,33.75
2018-05-13T05:42:37.415Z,33.75
2018-05-13T05:43:37.384Z,33.75
2018-05-13T05:44:37.381Z,33.75
2018-05-13T05:45:37.388Z,33.75
2018-05-13T05:46:37.368Z,33.75
2018-05-13T05:47:37.358Z,33.75
2018-05-13T05:48:37.348Z,33.75
2018-05-13T05:49:37.338Z,33.75
2018-05-13T05:50:37.340Z,33.75
2018-05-13T05:51:37.329Z,33.75
2018-05-13T05:52:37.316Z,33.75
2018-05-13T05:53:37.305Z,33.75
2018-05-13T05:54:37.304Z,33.75
2018-05-13T05:55:37.307Z,33.75
2018-05-13T05:56:37.316Z,33.75
2018-05-13T05:57:37.282Z,33.75
2018-05-13T05:58:37.279Z,33.75
2018-05-13T05:59:37.266Z,39.38
2018-05-13T06:00:37.258Z,39.38
2018-05-13T06:01:37.285Z,39.38
2018-05-13T06:02:37.261Z,39.38
2018-05-13T06:03:37.284Z,39.38
2018-05-13T06:04:37.216Z,39.38
2018-05-13T06:05:37.225Z,39.38
2018-05-13T06:06:37.356Z,39.38
2018-05-13T06:07:37.205Z,39.38
2018-05-13T06:08:37.209Z,39.38
2018-05-13T06:09:37.197Z,39.38
2018-05-13T06:10:37.184Z,39.38
2018-05-13T06:11:37.177Z,45.00
2018-05-13T06:12:37.230Z,45.00
2018-05-13T06:13:37.161Z,45.00
2018-05-13T06:14:37.159Z,45.00
2018-05-13T06:15:37.176Z,45.00
2018-05-13T06:16:37.147Z,50.63
2018-05-13T06:17:37.142Z,50.63
2018-05-13T06:18:37.121Z,50.63
2018-05-13T06:19:37.211Z,50.63
2018-05-13T06:20:37.130Z,50.63
2018-05-13T06:21:37.114Z,50.63
2018-05-13T06:22:37.097Z,50.63
2018-05-13T06:23:37.088Z,50.63
2018-05-13T06:24:37.069Z,50.63
2018-05-13T06:25:37.075Z,50.63
2018-05-13T06:26:37.085Z,50.63
2018-05-13T06:27:37.066Z,50.63
2018-05-13T06:28:37.052Z,50.63
2018-05-13T06:29:37.049Z,50.63
2018-05-13T06:30:37.112Z,45.00
2018-05-13T06:31:37.060Z,45.00
2018-05-13T06:32:37.024Z,50.63
2018-05-13T06:33:37.051Z,50.63
2018-05-13T06:34:37.007Z,56.25
2018-05-13T06:35:36.995Z,56.25
2018-05-13T06:36:37.146Z,56.25
2018-05-13T06:37:36.987Z,61.88
2018-05-13T06:38:36.995Z,56.25
2018-05-13T06:39:36.982Z,56.25
2018-05-13T06:40:36.969Z,56.25
2018-05-13T06:41:36.960Z,56.25
2018-05-13T06:42:36.993Z,56.25
2018-05-13T06:43:36.946Z,56.25
2018-05-13T06:44:36.934Z,56.25
2018-05-13T06:45:36.960Z,56.25
2018-05-13T06:46:36.930Z,56.25
2018-05-13T06:47:37.027Z,56.25
2018-05-13T06:48:36.918Z,56.25
2018-05-13T06:49:36.905Z,56.25
2018-05-13T06:50:36.897Z,61.88
2018-05-13T06:51:36.890Z,61.88
2018-05-13T06:52:36.882Z,56.25
2018-05-13T06:53:36.956Z,61.88
2018-05-13T06:54:36.903Z,61.88
2018-05-13T06:55:36.868Z,61.88
2018-05-13T06:56:36.871Z,61.88
2018-05-13T06:57:36.943Z,61.88
2018-05-13T06:58:36.849Z,56.25
2018-05-13T06:59:36.874Z,56.25
2018-05-13T07:00:36.839Z,61.88
2018-05-13T07:01:36.841Z,61.88
2018-05-13T07:02:36.857Z,61.88
2018-05-13T07:03:36.820Z,61.88
2018-05-13T07:04:36.816Z,61.88
2018-05-13T07:05:36.860Z,61.88
2018-05-13T07:06:36.804Z,56.25
2018-05-13T07:07:36.791Z,56.25
2018-05-13T07:08:36.783Z,56.25
2018-05-13T07:09:36.779Z,61.88
2018-05-13T07:10:36.785Z,61.88
2018-05-13T07:11:36.801Z,61.88
2018-05-13T07:12:36.759Z,61.88
2018-05-13T07:13:36.787Z,56.25
2018-05-13T07:14:36.735Z,56.25
2018-05-13T07:15:36.743Z,61.88
2018-05-13T07:16:36.752Z,61.88
2018-05-13T07:17:36.727Z,61.88
2018-05-13T07:18:36.732Z,56.25
2018-05-13T07:19:36.713Z,56.25
2018-05-13T07:20:36.716Z,56.25
2018-05-13T07:21:36.706Z,56.25
2018-05-13T07:22:36.712Z,56.25
2018-05-13T07:23:36.701Z,61.88
2018-05-13T07:24:36.676Z,56.25
2018-05-13T07:25:36.683Z,61.88
2018-05-13T07:26:36.711Z,56.25
2018-05-13T07:27:36.669Z,56.25
2018-05-13T07:28:36.655Z,56.25
2018-05-13T07:29:36.665Z,56.25
2018-05-13T07:30:36.648Z,56.25
2018-05-13T07:31:36.644Z,56.25
2018-05-13T07:32:36.642Z,56.25
2018-05-13T07:33:36.623Z,56.25
2018-05-13T07:34:36.619Z,56.25
2018-05-13T07:35:36.786Z,56.25
2018-05-13T07:36:36.617Z,56.25
2018-05-13T07:37:36.600Z,56.25
2018-05-13T07:38:36.607Z,61.88
2018-05-13T07:39:36.596Z,61.88
2018-05-13T07:40:36.570Z,67.50
2018-05-13T07:41:36.610Z,67.50
2018-05-13T07:42:36.779Z,67.50
2018-05-13T07:43:36.565Z,67.50
2018-05-13T07:44:36.571Z,67.50
2018-05-13T07:45:36.553Z,67.50
2018-05-13T07:46:36.551Z,73.13
2018-05-13T07:47:36.546Z,73.13
2018-05-13T07:48:36.569Z,73.13
2018-05-13T07:49:36.533Z,73.13
2018-05-13T07:50:36.517Z,73.13
2018-05-13T07:51:36.512Z,78.75
2018-05-13T07:52:36.521Z,78.75
2018-05-13T07:53:36.545Z,78.75
2018-05-13T07:54:36.507Z,78.75
2018-05-13T07:55:36.500Z,78.75
2018-05-13T07:56:36.799Z,78.75
2018-05-13T07:57:36.486Z,78.75
2018-05-13T07:58:36.511Z,78.75
2018-05-13T07:59:36.470Z,78.75
2018-05-13T08:00:36.474Z,78.75
2018-05-13T08:01:36.468Z,78.75
2018-05-13T08:02:36.695Z,78.75
2018-05-13T08:03:36.453Z,78.75
2018-05-13T08:04:36.794Z,73.13
2018-05-13T08:05:36.444Z,73.13
2018-05-13T08:06:36.440Z,73.13
2018-05-13T08:07:36.431Z,73.13
2018-05-13T08:08:36.435Z,78.75
2018-05-13T08:09:36.415Z,78.75
2018-05-13T08:10:36.555Z,78.75
2018-05-13T08:11:36.411Z,78.75
2018-05-13T08:12:36.408Z,78.75
2018-05-13T08:13:36.394Z,78.75
2018-05-13T08:14:36.397Z,78.75
2018-05-13T08:15:36.391Z,78.75
2018-05-13T08:16:36.420Z,78.75
2018-05-13T08:17:36.394Z,78.75
2018-05-13T08:18:36.379Z,78.75
2018-05-13T08:19:36.377Z,78.75
2018-05-13T08:20:36.367Z,78.75
2018-05-13T08:21:36.357Z,78.75
2018-05-13T08:22:36.398Z,78.75
2018-05-13T08:23:36.339Z,78.75
2018-05-13T08:24:36.380Z,84.38
2018-05-13T08:25:36.333Z,84.38
2018-05-13T08:26:36.333Z,84.38
2018-05-13T08:27:36.338Z,84.38
2018-05-13T08:28:36.792Z,84.38
2018-05-13T08:29:36.320Z,84.38
2018-05-13T08:30:36.424Z,84.38
2018-05-13T08:31:36.301Z,84.38
2018-05-13T08:32:36.306Z,84.38
2018-05-13T08:33:36.303Z,84.38
2018-05-13T08:34:36.292Z,84.38
2018-05-13T08:35:36.332Z,84.38
2018-05-13T08:36:36.290Z,84.38
2018-05-13T08:37:36.277Z,84.38
2018-05-13T08:38:36.339Z,84.38
2018-05-13T08:39:36.261Z,90.00
2018-05-13T08:40:36.439Z,90.00
2018-05-13T08:41:36.265Z,90.00
2018-05-13T08:42:36.244Z,95.63
2018-05-13T08:43:36.245Z,95.63
2018-05-13T08:44:36.232Z,101.25
2018-05-13T08:45:36.265Z,101.25
2018-05-13T08:46:36.303Z,101.25
2018-05-13T08:47:36.232Z,101.25
2018-05-13T08:48:36.966Z,101.25
2018-05-13T08:49:36.221Z,101.25
2018-05-13T08:50:36.230Z,106.88
2018-05-13T08:51:36.204Z,106.88
2018-05-13T08:52:36.268Z,106.88
2018-05-13T08:53:36.199Z,106.88
2018-05-13T08:54:36.186Z,106.88
2018-05-13T08:55:36.198Z,106.88
2018-05-13T08:56:36.180Z,106.88
2018-05-13T08:57:36.180Z,112.50
2018-05-13T08:58:36.203Z,112.50
2018-05-13T08:59:36.193Z,118.13
2018-05-13T09:00:36.173Z,112.50
2018-05-13T09:01:36.165Z,112.50
2018-05-13T09:02:36.186Z,112.50
2018-05-13T09:03:36.167Z,112.50
2018-05-13T09:04:36.156Z,118.13
2018-05-13T09:05:36.160Z,118.13
2018-05-13T09:06:36.149Z,118.13
2018-05-13T09:07:36.148Z,123.75
2018-05-13T09:08:36.172Z,123.75
2018-05-13T09:09:36.139Z,123.75
2018-05-13T09:10:36.136Z,129.38
2018-05-13T09:11:36.137Z,129.38
2018-05-13T09:12:36.801Z,129.38
2018-05-13T09:13:36.134Z,129.38
2018-05-13T09:14:36.129Z,129.38
2018-05-13T09:15:36.150Z,135.00
2018-05-13T09:16:36.121Z,135.00
2018-05-13T09:17:36.119Z,135.00
2018-05-13T09:18:36.111Z,135.00
2018-05-13T09:19:36.119Z,135.00
2018-05-13T09:20:36.184Z,135.00
2018-05-13T09:21:36.112Z,140.63
2018-05-13T09:22:36.100Z,140.63
2018-05-13T09:23:36.102Z,140.63
2018-05-13T09:24:36.108Z,140.63
2018-05-13T09:25:36.131Z,146.25
2018-05-13T09:26:36.116Z,146.25
2018-05-13T09:27:36.103Z,146.25
2018-05-13T09:28:36.101Z,146.25
2018-05-13T09:29:36.094Z,146.25
2018-05-13T09:30:36.131Z,146.25
2018-05-13T09:31:36.087Z,151.88
2018-05-13T09:32:36.083Z,151.88
2018-05-13T09:33:36.092Z,157.50
2018-05-13T09:34:36.241Z,157.50
2018-05-13T09:35:36.091Z,157.50
2018-05-13T09:36:36.092Z,157.50
2018-05-13T09:37:36.097Z,157.50
2018-05-13T09:38:36.091Z,163.13
2018-05-13T09:39:36.096Z,157.50
2018-05-13T09:40:36.108Z,157.50
2018-05-13T09:41:36.093Z,157.50
2018-05-13T09:42:36.103Z,163.13
2018-05-13T09:43:36.102Z,163.13
2018-05-13T09:44:36.092Z,163.13
2018-05-13T09:45:36.103Z,174.38
2018-05-13T09:46:36.090Z,180.00
2018-05-13T09:47:36.097Z,185.63
2018-05-13T09:48:36.095Z,185.63
2018-05-13T09:49:36.088Z,180.00
2018-05-13T09:50:36.122Z,185.63
2018-05-13T09:51:36.125Z,191.25
2018-05-13T09:52:36.093Z,208.13
2018-05-13T09:53:36.109Z,208.13
2018-05-13T09:54:36.105Z,213.75
2018-05-13T09:55:36.114Z,219.38
2018-05-13T09:56:36.141Z,225.00
2018-05-13T09:57:36.135Z,225.00
2018-05-13T09:58:36.116Z,236.25
2018-05-13T09:59:36.120Z,241.88
2018-05-13T10:00:36.118Z,281.25
2018-05-13T10:01:36.263Z,326.25
2018-05-13T10:02:36.114Z,337.50
2018-05-13T10:03:36.128Z,337.50
2018-05-13T10:04:36.130Z,343.13
2018-05-13T10:05:36.128Z,348.75
2018-05-13T10:06:36.121Z,354.38
2018-05-13T10:07:36.158Z,376.88
2018-05-13T10:08:36.139Z,388.13
2018-05-13T10:09:36.226Z,399.38
2018-05-13T10:10:36.151Z,416.25
2018-05-13T10:11:36.164Z,427.50
2018-05-13T10:12:36.222Z,416.25
2018-05-13T10:13:36.149Z,478.13
2018-05-13T10:14:36.160Z,523.13
2018-05-13T10:15:36.168Z,613.13
2018-05-13T10:16:36.192Z,855.00
2018-05-13T10:17:36.174Z,1715.63
2018-05-13T10:18:36.382Z,2373.75
2018-05-13T10:19:36.306Z,2503.13
2018-05-13T10:20:36.182Z,2643.75
2018-05-13T10:21:36.203Z,2756.25
2018-05-13T10:22:36.318Z,2970.00
2018-05-13T10:23:36.245Z,2621.25
2018-05-13T10:24:36.844Z,2446.88
2018-05-13T10:25:36.207Z,2143.13
2018-05-13T10:26:36.218Z,2390.63
2018-05-13T10:27:36.225Z,2475.00
2018-05-13T10:28:36.287Z,2666.25
2018-05-13T10:29:36.236Z,2733.75
2018-05-13T10:30:36.236Z,2615.63
2018-05-13T10:31:36.245Z,2368.13
2018-05-13T10:32:36.249Z,2058.75
2018-05-13T10:33:36.261Z,2025.00
2018-05-13T10:34:36.320Z,2711.25
2018-05-13T10:35:36.274Z,2790.00
2018-05-13T10:36:36.283Z,2266.88
2018-05-13T10:37:36.275Z,2655.00
2018-05-13T10:38:36.291Z,1395.00
2018-05-13T10:39:36.281Z,900.00
2018-05-13T10:40:36.334Z,697.50
2018-05-13T10:41:36.299Z,826.88
2018-05-13T10:42:36.311Z,826.88
2018-05-13T10:43:36.314Z,2626.88
2018-05-13T10:44:36.330Z,1653.75
2018-05-13T10:45:36.331Z,1018.13
2018-05-13T10:46:36.381Z,1091.25
2018-05-13T10:47:36.349Z,1288.13
2018-05-13T10:48:36.340Z,1333.13
2018-05-13T10:49:36.343Z,1648.13
2018-05-13T10:50:36.351Z,1828.13
2018-05-13T10:51:36.348Z,618.75
2018-05-13T10:52:36.371Z,1383.75
2018-05-13T10:53:36.378Z,1518.75
2018-05-13T10:54:36.374Z,1265.63
2018-05-13T10:55:36.371Z,545.63
2018-05-13T10:56:36.385Z,540.00
2018-05-13T10:57:36.802Z,815.63
2018-05-13T10:58:36.387Z,1473.75
2018-05-13T10:59:36.392Z,967.50
2018-05-13T11:00:36.395Z,360.00
2018-05-13T11:01:36.401Z,281.25
2018-05-13T11:02:36.393Z,286.88
2018-05-13T11:03:36.552Z,483.75
2018-05-13T11:04:36.394Z,433.13
2018-05-13T11:05:36.404Z,573.75
2018-05-13T11:06:36.409Z,303.75
2018-05-13T11:07:36.400Z,438.75
2018-05-13T11:08:36.419Z,1147.50
2018-05-13T11:09:36.894Z,337.50
2018-05-13T11:10:36.412Z,2210.63
2018-05-13T11:11:36.420Z,2491.88
2018-05-13T11:12:36.416Z,1119.38
2018-05-13T11:13:36.420Z,2576.25
2018-05-13T11:14:36.439Z,2705.63
2018-05-13T11:15:36.412Z,2548.13
2018-05-13T11:16:36.426Z,2008.13
2018-05-13T11:17:36.437Z,2075.63
2018-05-13T11:18:36.455Z,2047.50
2018-05-13T11:19:36.429Z,2486.25
2018-05-13T11:20:36.537Z,1614.38
2018-05-13T11:21:36.436Z,2233.13
2018-05-13T11:22:36.573Z,1648.13
2018-05-13T11:23:36.432Z,1057.50
2018-05-13T11:24:36.435Z,1676.25
2018-05-13T11:25:36.441Z,1946.25
2018-05-13T11:26:36.450Z,2925.00
2018-05-13T11:27:36.455Z,2784.38
2018-05-13T11:28:36.478Z,2615.63
2018-05-13T11:29:36.451Z,2902.50
2018-05-13T11:30:36.452Z,3138.75
2018-05-13T11:31:36.463Z,3200.63
2018-05-13T11:32:36.466Z,3431.25
2018-05-13T11:33:36.507Z,3425.63
2018-05-13T11:34:36.533Z,3099.38
2018-05-13T11:35:36.478Z,2998.13
2018-05-13T11:36:36.484Z,2925.00
2018-05-13T11:37:36.478Z,2919.38
2018-05-13T11:38:36.484Z,2801.25
2018-05-13T11:39:36.494Z,2874.38
2018-05-13T11:40:36.904Z,2835.00
2018-05-13T11:41:36.506Z,2913.75
2018-05-13T11:42:36.510Z,2908.13
2018-05-13T11:43:36.513Z,1710.00
2018-05-13T11:44:36.518Z,2272.50
2018-05-13T11:45:36.531Z,2199.38
2018-05-13T11:46:36.563Z,2520.00
2018-05-13T11:47:36.533Z,2340.00
2018-05-13T11:48:36.552Z,2570.63
2018-05-13T11:49:36.553Z,2621.25
2018-05-13T11:50:36.955Z,2863.13
2018-05-13T11:51:36.563Z,3110.63
2018-05-13T11:52:36.575Z,3189.38
2018-05-13T11:53:36.577Z,2986.88
2018-05-13T11:54:36.598Z,2975.63
2018-05-13T11:55:36.593Z,2919.38
2018-05-13T11:56:36.621Z,2176.88
2018-05-13T11:57:36.610Z,2885.63
2018-05-13T11:58:36.639Z,270.00
2018-05-13T11:59:36.668Z,1507.50
2018-05-13T12:00:37.430Z,416.25
2018-05-13T12:01:36.638Z,3082.50
2018-05-13T12:02:36.714Z,264.38
2018-05-13T12:03:36.708Z,343.13
2018-05-13T12:04:36.877Z,208.13
2018-05-13T12:05:36.686Z,135.00
2018-05-13T12:06:36.904Z,208.13
2018-05-13T12:07:36.691Z,140.63
2018-05-13T12:08:36.699Z,140.63
2018-05-13T12:09:37.431Z,191.25
2018-05-13T12:10:36.856Z,320.63
2018-05-13T12:11:36.708Z,371.25
2018-05-13T12:12:36.726Z,500.63
2018-05-13T12:13:36.722Z,613.13
2018-05-13T12:14:36.756Z,421.88
2018-05-13T12:15:36.753Z,292.50
2018-05-13T12:16:36.803Z,1473.75
2018-05-13T12:17:36.748Z,1535.63
2018-05-13T12:18:36.753Z,191.25
2018-05-13T12:19:36.743Z,258.75
2018-05-13T12:20:36.759Z,247.50
2018-05-13T12:21:36.776Z,163.13
2018-05-13T12:22:36.791Z,123.75
2018-05-13T12:23:37.439Z,140.63
2018-05-13T12:24:37.061Z,129.38
2018-05-13T12:25:36.761Z,106.88
2018-05-13T12:26:36.766Z,112.50
2018-05-13T12:27:36.794Z,140.63
2018-05-13T12:28:36.773Z,168.75
2018-05-13T12:29:36.782Z,208.13
2018-05-13T12:30:36.790Z,208.13
2018-05-13T12:31:36.775Z,225.00
2018-05-13T12:32:36.786Z,1614.38
2018-05-13T12:33:36.791Z,427.50
2018-05-13T12:34:36.782Z,911.25
2018-05-13T12:35:36.790Z,1102.50
2018-05-13T12:36:36.946Z,264.38
2018-05-13T12:37:36.799Z,213.75
2018-05-13T12:38:36.792Z,213.75
2018-05-13T12:39:36.801Z,208.13
2018-05-13T12:40:37.437Z,230.63
2018-05-13T12:41:36.810Z,213.75
2018-05-13T12:42:36.984Z,213.75
2018-05-13T12:43:36.797Z,213.75
2018-05-13T12:44:36.807Z,219.38
2018-05-13T12:45:36.806Z,219.38
2018-05-13T12:46:36.804Z,236.25
2018-05-13T12:47:36.849Z,236.25
2018-05-13T12:48:36.838Z,213.75
2018-05-13T12:49:36.809Z,270.00
2018-05-13T12:50:36.821Z,213.75
2018-05-13T12:51:36.816Z,163.13
2018-05-13T12:52:36.811Z,101.25
2018-05-13T12:53:37.457Z,95.63
2018-05-13T12:54:36.806Z,118.13
2018-05-13T12:55:36.807Z,151.88
2018-05-13T12:56:36.816Z,157.50
2018-05-13T12:57:37.450Z,196.88
2018-05-13T12:58:36.822Z,225.00
2018-05-13T12:59:36.885Z,225.00
2018-05-13T13:00:36.808Z,230.63
2018-05-13T13:01:36.818Z,208.13
2018-05-13T13:02:36.830Z,191.25
2018-05-13T13:03:36.814Z,185.63
2018-05-13T13:04:36.810Z,180.00
2018-05-13T13:05:36.979Z,163.13
2018-05-13T13:06:36.827Z,185.63
2018-05-13T13:07:36.825Z,168.75
2018-05-13T13:08:37.468Z,191.25
2018-05-13T13:09:36.804Z,163.13
2018-05-13T13:10:37.475Z,140.63
2018-05-13T13:11:37.030Z,135.00
2018-05-13T13:12:36.853Z,146.25
2018-05-13T13:13:36.804Z,118.13
2018-05-13T13:14:36.802Z,140.63
2018-05-13T13:15:36.809Z,146.25
2018-05-13T13:16:36.808Z,123.75
2018-05-13T13:17:36.814Z,118.13
2018-05-13T13:18:36.811Z,106.88
2018-05-13T13:19:36.801Z,84.38
2018-05-13T13:20:36.804Z,73.13
2018-05-13T13:21:36.830Z,73.13
2018-05-13T13:22:36.864Z,67.50
2018-05-13T13:23:36.804Z,73.13
2018-05-13T13:24:36.854Z,73.13
2018-05-13T13:25:36.928Z,78.75
2018-05-13T13:26:36.796Z,73.13
2018-05-13T13:27:36.801Z,78.75
2018-05-13T13:28:37.473Z,90.00
2018-05-13T13:29:36.941Z,73.13
2018-05-13T13:30:36.878Z,45.00
2018-05-13T13:31:36.797Z,33.75
2018-05-13T13:32:36.821Z,39.38
2018-05-13T13:33:36.786Z,45.00
2018-05-13T13:34:36.793Z,45.00
2018-05-13T13:35:37.139Z,50.63
2018-05-13T13:36:36.829Z,50.63
2018-05-13T13:37:36.773Z,61.88
2018-05-13T13:38:36.785Z,67.50
2018-05-13T13:39:36.860Z,73.13
2018-05-13T13:40:36.785Z,78.75
2018-05-13T13:41:36.844Z,95.63
2018-05-13T13:42:36.770Z,140.63
2018-05-13T13:43:36.921Z,174.38
2018-05-13T13:44:36.767Z,202.50
2018-05-13T13:45:36.850Z,315.00
2018-05-13T13:46:36.767Z,489.38
2018-05-13T13:47:36.792Z,180.00
2018-05-13T13:48:36.772Z,208.13
2018-05-13T13:49:36.774Z,421.88
2018-05-13T13:50:36.788Z,208.13
2018-05-13T13:51:37.486Z,196.88
2018-05-13T13:52:37.009Z,213.75
2018-05-13T13:53:36.759Z,219.38
2018-05-13T13:54:36.766Z,118.13
2018-05-13T13:55:36.774Z,95.63
2018-05-13T13:56:36.766Z,101.25
2018-05-13T13:57:36.844Z,84.38
2018-05-13T13:58:36.764Z,78.75
2018-05-13T13:59:36.745Z,73.13
2018-05-13T14:00:36.769Z,84.38
2018-05-13T14:01:36.747Z,90.00
2018-05-13T14:02:36.754Z,90.00
2018-05-13T14:03:36.889Z,118.13
2018-05-13T14:04:36.742Z,101.25
2018-05-13T14:05:36.818Z,112.50
2018-05-13T14:06:36.772Z,140.63
2018-05-13T14:07:36.744Z,106.88
2018-05-13T14:08:36.742Z,84.38
2018-05-13T14:09:36.748Z,84.38
2018-05-13T14:10:36.758Z,84.38
2018-05-13T14:11:36.738Z,84.38
2018-05-13T14:12:36.727Z,112.50
2018-05-13T14:13:36.736Z,61.88
2018-05-13T14:14:36.779Z,56.25
2018-05-13T14:15:36.765Z,45.00
2018-05-13T14:16:36.731Z,45.00
2018-05-13T14:17:36.721Z,45.00
2018-05-13T14:18:36.712Z,45.00
2018-05-13T14:19:36.713Z,50.63
2018-05-13T14:20:36.812Z,56.25
2018-05-13T14:21:36.729Z,56.25
2018-05-13T14:22:36.723Z,61.88
2018-05-13T14:23:36.745Z,61.88
2018-05-13T14:24:36.703Z,67.50
2018-05-13T14:25:36.708Z,67.50
2018-05-13T14:26:36.769Z,73.13
2018-05-13T14:27:37.505Z,73.13
2018-05-13T14:28:36.741Z,78.75
2018-05-13T14:29:36.701Z,73.13
2018-05-13T14:30:36.695Z,67.50
2018-05-13T14:31:36.701Z,67.50
2018-05-13T14:32:37.074Z,61.88
2018-05-13T14:33:36.701Z,50.63
2018-05-13T14:34:36.699Z,45.00
2018-05-13T14:35:36.704Z,45.00
2018-05-13T14:36:36.690Z,45.00
2018-05-13T14:37:36.700Z,39.38
2018-05-13T14:38:37.035Z,39.38
2018-05-13T14:39:36.710Z,39.38
2018-05-13T14:40:36.684Z,39.38
2018-05-13T14:41:36.678Z,33.75
2018-05-13T14:42:36.686Z,33.75
2018-05-13T14:43:36.703Z,22.50
2018-05-13T14:44:36.704Z,16.88
2018-05-13T14:45:36.677Z,16.88
2018-05-13T14:46:36.661Z,16.88
2018-05-13T14:47:36.647Z,11.25
2018-05-13T14:48:36.651Z,16.88
2018-05-13T14:49:36.705Z,16.88
2018-05-13T14:50:36.756Z,16.88
2018-05-13T14:51:36.652Z,22.50
2018-05-13T14:52:36.646Z,22.50
2018-05-13T14:53:36.638Z,22.50
2018-05-13T14:54:37.077Z,28.13
2018-05-13T14:55:36.655Z,22.50
2018-05-13T14:56:36.636Z,22.50
2018-05-13T14:57:36.639Z,22.50
2018-05-13T14:58:36.634Z,22.50
2018-05-13T14:59:36.630Z,22.50
2018-05-13T15:00:36.637Z,22.50
2018-05-13T15:01:36.797Z,22.50
2018-05-13T15:02:36.614Z,22.50
2018-05-13T15:03:36.744Z,22.50
2018-05-13T15:04:36.663Z,22.50
2018-05-13T15:05:36.614Z,22.50
2018-05-13T15:06:36.604Z,22.50
2018-05-13T15:07:36.592Z,22.50
2018-05-13T15:08:36.584Z,22.50
2018-05-13T15:09:36.581Z,22.50
2018-05-13T15:10:36.612Z,22.50
2018-05-13T15:11:36.567Z,22.50
2018-05-13T15:12:36.566Z,22.50
2018-05-13T15:13:37.061Z,22.50
2018-05-13T15:14:37.537Z,22.50
2018-05-13T15:15:36.661Z,22.50
2018-05-13T15:16:36.628Z,22.50
2018-05-13T15:17:36.557Z,28.13
2018-05-13T15:18:36.550Z,28.13
2018-05-13T15:19:36.590Z,28.13
2018-05-13T15:20:36.521Z,28.13
2018-05-13T15:21:36.533Z,28.13
2018-05-13T15:22:37.118Z,28.13
2018-05-13T15:23:36.593Z,28.13
2018-05-13T15:24:37.039Z,28.13
2018-05-13T15:25:36.507Z,28.13
2018-05-13T15:26:36.658Z,33.75
2018-05-13T15:27:36.596Z,33.75
2018-05-13T15:28:36.936Z,33.75
2018-05-13T15:29:36.507Z,33.75
2018-05-13T15:30:36.583Z,33.75
2018-05-13T15:31:36.892Z,39.38
2018-05-13T15:32:36.474Z,39.38
2018-05-13T15:33:36.461Z,39.38
2018-05-13T15:34:36.468Z,45.00
2018-05-13T15:35:37.565Z,45.00
2018-05-13T15:36:36.546Z,45.00
2018-05-13T15:37:37.055Z,45.00
2018-05-13T15:38:36.455Z,50.63
2018-05-13T15:39:36.433Z,50.63
2018-05-13T15:40:36.551Z,50.63
2018-05-13T15:41:36.583Z,56.25
2018-05-13T15:42:36.569Z,56.25
2018-05-13T15:43:36.401Z,56.25
2018-05-13T15:44:36.693Z,61.88
2018-05-13T15:45:36.433Z,56.25
2018-05-13T15:46:36.387Z,56.25
2018-05-13T15:47:36.453Z,56.25
2018-05-13T15:48:36.374Z,56.25
2018-05-13T15:49:36.362Z,61.88
2018-05-13T15:50:36.372Z,61.88
2018-05-13T15:51:36.341Z,61.88
2018-05-13T15:52:36.368Z,61.88
2018-05-13T15:53:36.379Z,61.88
2018-05-13T15:54:36.330Z,56.25
2018-05-13T15:55:36.489Z,50.63
2018-05-13T15:56:36.319Z,45.00
2018-05-13T15:57:36.340Z,39.38
2018-05-13T15:58:36.314Z,39.38
2018-05-13T15:59:36.341Z,39.38
2018-05-13T16:00:36.337Z,39.38
2018-05-13T16:01:36.297Z,45.00
2018-05-13T16:02:36.312Z,39.38
2018-05-13T16:03:36.283Z,28.13
2018-05-13T16:04:36.280Z,22.50
2018-05-13T16:05:36.281Z,16.88